sensor_id;sensor_type;location;lat;lon;timestamp;P1;durP1;ratioP1;P2;durP2;ratioP2
44145;SDS011;29809;52.432;4.780;2023-01-01T00:00:53;24.02;;;14.93;;
44145;SDS011;29809;52.432;4.780;2023-01-01T00:03:18;21.52;;;14.60;;
44145;SDS011;29809;52.432;4.780;2023-01-01T00:05:44;19.50;;;14.43;;
44145;SDS011;29809;52.432;4.780;2023-01-01T00:08:09;23.08;;;15.43;;
44145;SDS011;29809;52.432;4.780;2023-01-01T00:10:34;19.80;;;15.70;;
44145;SDS011;29809;52.432;4.780;2023-01-01T00:13:00;21.35;;;16.35;;
44145;SDS011;29809;52.432;4.780;2023-01-01T00:15:25;32.10;;;17.23;;
44145;SDS011;29809;52.432;4.780;2023-01-01T00:17:51;21.25;;;17.17;;
44145;SDS011;29809;52.432;4.780;2023-01-01T00:20:16;24.85;;;17.33;;
44145;SDS011;29809;52.432;4.780;2023-01-01T00:22:41;20.13;;;16.33;;
44145;SDS011;29809;52.432;4.780;2023-01-01T00:25:07;21.92;;;16.75;;
44145;SDS011;29809;52.432;4.780;2023-01-01T00:27:32;19.33;;;15.85;;
44145;SDS011;29809;52.432;4.780;2023-01-01T00:29:57;19.02;;;15.32;;
44145;SDS011;29809;52.432;4.780;2023-01-01T00:32:23;16.60;;;14.77;;
44145;SDS011;29809;52.432;4.780;2023-01-01T00:34:48;20.88;;;15.38;;
44145;SDS011;29809;52.432;4.780;2023-01-01T00:37:13;20.27;;;15.45;;
44145;SDS011;29809;52.432;4.780;2023-01-01T00:39:39;20.27;;;14.55;;
44145;SDS011;29809;52.432;4.780;2023-01-01T00:42:04;15.45;;;12.63;;
44145;SDS011;29809;52.432;4.780;2023-01-01T00:44:30;18.05;;;14.00;;
44145;SDS011;29809;52.432;4.780;2023-01-01T00:46:55;18.77;;;14.52;;
44145;SDS011;29809;52.432;4.780;2023-01-01T00:49:20;14.63;;;11.90;;
44145;SDS011;29809;52.432;4.780;2023-01-01T00:51:46;17.45;;;13.00;;
44145;SDS011;29809;52.432;4.780;2023-01-01T00:54:11;15.77;;;12.18;;
44145;SDS011;29809;52.432;4.780;2023-01-01T00:56:37;15.55;;;12.45;;
44145;SDS011;29809;52.432;4.780;2023-01-01T00:59:02;16.38;;;12.80;;
44145;SDS011;29809;52.432;4.780;2023-01-01T01:01:27;13.65;;;11.15;;
44145;SDS011;29809;52.432;4.780;2023-01-01T01:03:52;18.20;;;12.32;;
44145;SDS011;29809;52.432;4.780;2023-01-01T01:06:18;13.40;;;11.07;;
44145;SDS011;29809;52.432;4.780;2023-01-01T01:08:45;15.05;;;10.65;;
44145;SDS011;29809;52.432;4.780;2023-01-01T01:11:12;16.80;;;10.48;;
44145;SDS011;29809;52.432;4.780;2023-01-01T01:13:38;14.13;;;9.68;;
44145;SDS011;29809;52.432;4.780;2023-01-01T01:18:34;13.70;;;8.48;;
44145;SDS011;29809;52.432;4.780;2023-01-01T01:21:00;14.85;;;8.73;;
44145;SDS011;29809;52.432;4.780;2023-01-01T01:23:25;13.13;;;7.72;;
44145;SDS011;29809;52.432;4.780;2023-01-01T01:25:50;8.98;;;7.20;;
44145;SDS011;29809;52.432;4.780;2023-01-01T01:28:15;10.20;;;7.63;;
44145;SDS011;29809;52.432;4.780;2023-01-01T01:30:41;14.10;;;7.22;;
44145;SDS011;29809;52.432;4.780;2023-01-01T01:33:06;10.23;;;7.00;;
44145;SDS011;29809;52.432;4.780;2023-01-01T01:35:31;8.43;;;5.93;;
44145;SDS011;29809;52.432;4.780;2023-01-01T01:37:57;13.48;;;6.65;;
44145;SDS011;29809;52.432;4.780;2023-01-01T01:40:22;12.90;;;6.28;;
44145;SDS011;29809;52.432;4.780;2023-01-01T01:42:48;8.63;;;6.05;;
44145;SDS011;29809;52.432;4.780;2023-01-01T01:45:14;9.10;;;5.60;;
44145;SDS011;29809;52.432;4.780;2023-01-01T01:47:48;11.20;;;5.97;;
44145;SDS011;29809;52.432;4.780;2023-01-01T01:53:06;9.35;;;5.60;;
44145;SDS011;29809;52.432;4.780;2023-01-01T01:55:33;8.90;;;5.30;;
44145;SDS011;29809;52.432;4.780;2023-01-01T01:57:59;8.07;;;5.55;;
44145;SDS011;29809;52.432;4.780;2023-01-01T02:00:24;6.75;;;5.22;;
44145;SDS011;29809;52.432;4.780;2023-01-01T02:05:30;9.25;;;6.32;;
44145;SDS011;29809;52.432;4.780;2023-01-01T02:07:56;9.00;;;5.88;;
44145;SDS011;29809;52.432;4.780;2023-01-01T02:10:22;10.07;;;5.60;;
44145;SDS011;29809;52.432;4.780;2023-01-01T02:12:48;9.15;;;4.85;;
44145;SDS011;29809;52.432;4.780;2023-01-01T02:15:13;10.38;;;5.82;;
44145;SDS011;29809;52.432;4.780;2023-01-01T02:17:40;11.25;;;5.15;;
44145;SDS011;29809;52.432;4.780;2023-01-01T02:28:09;7.68;;;3.90;;
44145;SDS011;29809;52.432;4.780;2023-01-01T02:30:40;8.30;;;3.95;;
44145;SDS011;29809;52.432;4.780;2023-01-01T02:33:07;5.68;;;3.90;;
44145;SDS011;29809;52.432;4.780;2023-01-01T02:35:37;10.15;;;3.78;;
44145;SDS011;29809;52.432;4.780;2023-01-01T02:40:52;10.18;;;3.47;;
44145;SDS011;29809;52.432;4.780;2023-01-01T02:43:19;8.75;;;3.60;;
44145;SDS011;29809;52.432;4.780;2023-01-01T02:45:44;6.78;;;3.35;;
44145;SDS011;29809;52.432;4.780;2023-01-01T02:50:54;7.95;;;3.08;;
44145;SDS011;29809;52.432;4.780;2023-01-01T02:53:27;9.10;;;4.00;;
44145;SDS011;29809;52.432;4.780;2023-01-01T02:58:39;9.13;;;3.78;;
44145;SDS011;29809;52.432;4.780;2023-01-01T03:01:28;10.25;;;3.03;;
44145;SDS011;29809;52.432;4.780;2023-01-01T03:04:00;10.70;;;2.95;;
44145;SDS011;29809;52.432;4.780;2023-01-01T03:06:37;7.95;;;2.90;;
44145;SDS011;29809;52.432;4.780;2023-01-01T03:09:25;11.10;;;3.13;;
44145;SDS011;29809;52.432;4.780;2023-01-01T03:19:43;5.57;;;2.65;;
44145;SDS011;29809;52.432;4.780;2023-01-01T03:22:10;6.63;;;2.50;;
44145;SDS011;29809;52.432;4.780;2023-01-01T03:24:37;8.13;;;2.33;;
44145;SDS011;29809;52.432;4.780;2023-01-01T03:27:10;10.23;;;3.05;;
44145;SDS011;29809;52.432;4.780;2023-01-01T03:29:39;6.78;;;2.88;;
44145;SDS011;29809;52.432;4.780;2023-01-01T03:32:04;5.72;;;2.50;;
44145;SDS011;29809;52.432;4.780;2023-01-01T03:34:34;10.13;;;2.85;;
44145;SDS011;29809;52.432;4.780;2023-01-01T03:37:03;7.82;;;3.22;;
44145;SDS011;29809;52.432;4.780;2023-01-01T03:39:32;6.07;;;2.95;;
44145;SDS011;29809;52.432;4.780;2023-01-01T03:44:32;8.80;;;2.92;;
44145;SDS011;29809;52.432;4.780;2023-01-01T03:46:58;9.20;;;2.72;;
44145;SDS011;29809;52.432;4.780;2023-01-01T03:49:23;6.88;;;2.50;;
44145;SDS011;29809;52.432;4.780;2023-01-01T03:54:48;9.02;;;3.10;;
44145;SDS011;29809;52.432;4.780;2023-01-01T04:00:26;10.18;;;3.20;;
44145;SDS011;29809;52.432;4.780;2023-01-01T04:02:28;7.07;;;2.80;;
44145;SDS011;29809;52.432;4.780;2023-01-01T04:04:55;10.05;;;2.25;;
44145;SDS011;29809;52.432;4.780;2023-01-01T04:07:21;7.07;;;2.28;;
44145;SDS011;29809;52.432;4.780;2023-01-01T04:09:47;11.88;;;2.80;;
44145;SDS011;29809;52.432;4.780;2023-01-01T04:12:14;11.55;;;2.75;;
44145;SDS011;29809;52.432;4.780;2023-01-01T04:14:40;6.78;;;3.15;;
44145;SDS011;29809;52.432;4.780;2023-01-01T04:17:06;5.82;;;2.47;;
44145;SDS011;29809;52.432;4.780;2023-01-01T04:19:31;7.70;;;2.22;;
44145;SDS011;29809;52.432;4.780;2023-01-01T04:21:57;6.72;;;2.45;;
44145;SDS011;29809;52.432;4.780;2023-01-01T04:24:22;7.35;;;2.50;;
44145;SDS011;29809;52.432;4.780;2023-01-01T04:26:48;11.18;;;2.47;;
44145;SDS011;29809;52.432;4.780;2023-01-01T04:29:13;6.65;;;2.40;;
44145;SDS011;29809;52.432;4.780;2023-01-01T04:31:38;7.15;;;2.22;;
44145;SDS011;29809;52.432;4.780;2023-01-01T04:34:04;5.15;;;2.10;;
44145;SDS011;29809;52.432;4.780;2023-01-01T04:36:29;6.05;;;2.38;;
44145;SDS011;29809;52.432;4.780;2023-01-01T04:38:54;10.13;;;2.45;;
44145;SDS011;29809;52.432;4.780;2023-01-01T04:41:20;7.72;;;2.28;;
44145;SDS011;29809;52.432;4.780;2023-01-01T04:43:45;7.90;;;2.35;;
44145;SDS011;29809;52.432;4.780;2023-01-01T04:46:13;5.10;;;2.00;;
44145;SDS011;29809;52.432;4.780;2023-01-01T04:48:38;8.52;;;2.50;;
44145;SDS011;29809;52.432;4.780;2023-01-01T04:51:04;8.82;;;2.22;;
44145;SDS011;29809;52.432;4.780;2023-01-01T04:53:30;9.90;;;2.45;;
44145;SDS011;29809;52.432;4.780;2023-01-01T04:56:02;7.18;;;1.88;;
44145;SDS011;29809;52.432;4.780;2023-01-01T04:58:27;6.88;;;2.20;;
44145;SDS011;29809;52.432;4.780;2023-01-01T05:00:52;10.43;;;2.20;;
44145;SDS011;29809;52.432;4.780;2023-01-01T05:03:18;6.78;;;2.70;;
44145;SDS011;29809;52.432;4.780;2023-01-01T05:05:43;8.35;;;2.50;;
44145;SDS011;29809;52.432;4.780;2023-01-01T05:08:08;7.82;;;2.17;;
44145;SDS011;29809;52.432;4.780;2023-01-01T05:10:33;8.07;;;1.88;;
44145;SDS011;29809;52.432;4.780;2023-01-01T05:12:59;7.90;;;2.72;;
44145;SDS011;29809;52.432;4.780;2023-01-01T05:15:24;6.63;;;1.98;;
44145;SDS011;29809;52.432;4.780;2023-01-01T05:17:49;8.25;;;2.50;;
44145;SDS011;29809;52.432;4.780;2023-01-01T05:20:14;10.27;;;3.33;;
44145;SDS011;29809;52.432;4.780;2023-01-01T05:22:40;10.27;;;3.10;;
44145;SDS011;29809;52.432;4.780;2023-01-01T05:25:05;8.10;;;2.67;;
44145;SDS011;29809;52.432;4.780;2023-01-01T05:27:30;9.05;;;2.72;;
44145;SDS011;29809;52.432;4.780;2023-01-01T05:29:56;8.93;;;2.80;;
44145;SDS011;29809;52.432;4.780;2023-01-01T05:32:21;9.75;;;2.80;;
44145;SDS011;29809;52.432;4.780;2023-01-01T05:34:46;12.05;;;3.33;;
44145;SDS011;29809;52.432;4.780;2023-01-01T05:37:12;12.85;;;2.92;;
44145;SDS011;29809;52.432;4.780;2023-01-01T05:39:37;11.18;;;3.05;;
44145;SDS011;29809;52.432;4.780;2023-01-01T05:42:02;12.15;;;3.33;;
44145;SDS011;29809;52.432;4.780;2023-01-01T05:44:27;11.73;;;3.35;;
44145;SDS011;29809;52.432;4.780;2023-01-01T05:46:53;11.68;;;3.50;;
44145;SDS011;29809;52.432;4.780;2023-01-01T05:49:18;13.52;;;4.18;;
44145;SDS011;29809;52.432;4.780;2023-01-01T05:51:43;13.30;;;3.70;;
44145;SDS011;29809;52.432;4.780;2023-01-01T05:54:08;14.32;;;3.67;;
44145;SDS011;29809;52.432;4.780;2023-01-01T05:56:34;11.07;;;3.42;;
44145;SDS011;29809;52.432;4.780;2023-01-01T05:58:59;9.23;;;4.05;;
44145;SDS011;29809;52.432;4.780;2023-01-01T06:01:25;13.90;;;3.58;;
44145;SDS011;29809;52.432;4.780;2023-01-01T06:03:51;16.70;;;4.10;;
44145;SDS011;29809;52.432;4.780;2023-01-01T06:06:17;12.75;;;3.88;;
44145;SDS011;29809;52.432;4.780;2023-01-01T06:08:53;12.90;;;3.90;;
44145;SDS011;29809;52.432;4.780;2023-01-01T06:11:18;13.63;;;3.85;;
44145;SDS011;29809;52.432;4.780;2023-01-01T06:13:44;15.20;;;3.65;;
44145;SDS011;29809;52.432;4.780;2023-01-01T06:16:09;13.23;;;3.92;;
44145;SDS011;29809;52.432;4.780;2023-01-01T06:18:34;12.82;;;3.90;;
44145;SDS011;29809;52.432;4.780;2023-01-01T06:21:07;15.00;;;3.75;;
44145;SDS011;29809;52.432;4.780;2023-01-01T06:23:33;13.68;;;3.17;;
44145;SDS011;29809;52.432;4.780;2023-01-01T06:26:08;13.57;;;4.05;;
44145;SDS011;29809;52.432;4.780;2023-01-01T06:28:34;12.10;;;3.33;;
44145;SDS011;29809;52.432;4.780;2023-01-01T06:31:03;12.38;;;3.53;;
44145;SDS011;29809;52.432;4.780;2023-01-01T06:33:28;13.60;;;3.90;;
44145;SDS011;29809;52.432;4.780;2023-01-01T06:35:53;15.02;;;4.00;;
44145;SDS011;29809;52.432;4.780;2023-01-01T06:38:19;10.73;;;3.05;;
44145;SDS011;29809;52.432;4.780;2023-01-01T06:40:53;12.80;;;4.15;;
44145;SDS011;29809;52.432;4.780;2023-01-01T06:43:19;9.32;;;3.45;;
44145;SDS011;29809;52.432;4.780;2023-01-01T06:45:44;13.93;;;3.53;;
44145;SDS011;29809;52.432;4.780;2023-01-01T06:48:09;19.25;;;5.05;;
44145;SDS011;29809;52.432;4.780;2023-01-01T06:50:34;15.70;;;3.58;;
44145;SDS011;29809;52.432;4.780;2023-01-01T06:53:00;12.38;;;3.40;;
44145;SDS011;29809;52.432;4.780;2023-01-01T06:55:25;13.23;;;3.30;;
44145;SDS011;29809;52.432;4.780;2023-01-01T06:57:50;16.20;;;3.47;;
44145;SDS011;29809;52.432;4.780;2023-01-01T07:00:16;13.73;;;3.85;;
44145;SDS011;29809;52.432;4.780;2023-01-01T07:02:41;13.15;;;3.75;;
44145;SDS011;29809;52.432;4.780;2023-01-01T07:05:06;17.42;;;3.40;;
44145;SDS011;29809;52.432;4.780;2023-01-01T07:07:32;14.77;;;3.65;;
44145;SDS011;29809;52.432;4.780;2023-01-01T07:09:57;15.15;;;3.90;;
44145;SDS011;29809;52.432;4.780;2023-01-01T07:12:22;11.55;;;3.67;;
44145;SDS011;29809;52.432;4.780;2023-01-01T07:14:47;14.55;;;3.90;;
44145;SDS011;29809;52.432;4.780;2023-01-01T07:17:12;11.07;;;3.08;;
44145;SDS011;29809;52.432;4.780;2023-01-01T07:19:38;16.75;;;4.40;;
44145;SDS011;29809;52.432;4.780;2023-01-01T07:22:03;13.68;;;3.33;;
44145;SDS011;29809;52.432;4.780;2023-01-01T07:24:28;15.20;;;4.10;;
44145;SDS011;29809;52.432;4.780;2023-01-01T07:26:53;14.07;;;4.30;;
44145;SDS011;29809;52.432;4.780;2023-01-01T07:29:19;13.65;;;3.95;;
44145;SDS011;29809;52.432;4.780;2023-01-01T07:31:44;13.05;;;3.67;;
44145;SDS011;29809;52.432;4.780;2023-01-01T07:34:13;13.93;;;3.72;;
44145;SDS011;29809;52.432;4.780;2023-01-01T07:36:39;18.10;;;4.57;;
44145;SDS011;29809;52.432;4.780;2023-01-01T07:39:05;13.32;;;3.97;;
44145;SDS011;29809;52.432;4.780;2023-01-01T07:41:30;15.35;;;4.30;;
44145;SDS011;29809;52.432;4.780;2023-01-01T07:43:55;12.02;;;3.17;;
44145;SDS011;29809;52.432;4.780;2023-01-01T07:46:21;16.73;;;4.18;;
44145;SDS011;29809;52.432;4.780;2023-01-01T07:48:46;16.42;;;4.15;;
44145;SDS011;29809;52.432;4.780;2023-01-01T07:51:11;12.93;;;3.72;;
44145;SDS011;29809;52.432;4.780;2023-01-01T07:53:36;15.05;;;3.92;;
44145;SDS011;29809;52.432;4.780;2023-01-01T07:56:02;12.68;;;3.20;;
44145;SDS011;29809;52.432;4.780;2023-01-01T07:58:27;15.00;;;3.72;;
44145;SDS011;29809;52.432;4.780;2023-01-01T08:00:52;13.52;;;3.60;;
44145;SDS011;29809;52.432;4.780;2023-01-01T08:03:18;13.32;;;3.45;;
44145;SDS011;29809;52.432;4.780;2023-01-01T08:05:43;10.07;;;3.03;;
44145;SDS011;29809;52.432;4.780;2023-01-01T08:08:08;14.02;;;4.10;;
44145;SDS011;29809;52.432;4.780;2023-01-01T08:10:34;17.40;;;3.85;;
44145;SDS011;29809;52.432;4.780;2023-01-01T08:13:00;10.35;;;3.08;;
44145;SDS011;29809;52.432;4.780;2023-01-01T08:15:25;10.32;;;3.22;;
44145;SDS011;29809;52.432;4.780;2023-01-01T08:17:54;12.63;;;3.47;;
44145;SDS011;29809;52.432;4.780;2023-01-01T08:20:19;12.77;;;3.30;;
44145;SDS011;29809;52.432;4.780;2023-01-01T08:22:45;12.70;;;3.17;;
44145;SDS011;29809;52.432;4.780;2023-01-01T08:25:10;14.32;;;3.22;;
44145;SDS011;29809;52.432;4.780;2023-01-01T08:27:35;9.13;;;3.13;;
44145;SDS011;29809;52.432;4.780;2023-01-01T08:30:02;11.02;;;3.75;;
44145;SDS011;29809;52.432;4.780;2023-01-01T08:32:27;16.52;;;4.50;;
44145;SDS011;29809;52.432;4.780;2023-01-01T08:34:52;14.15;;;4.20;;
44145;SDS011;29809;52.432;4.780;2023-01-01T08:37:23;12.93;;;3.85;;
44145;SDS011;29809;52.432;4.780;2023-01-01T08:39:52;14.43;;;3.40;;
44145;SDS011;29809;52.432;4.780;2023-01-01T08:42:17;83.25;;;29.02;;
44145;SDS011;29809;52.432;4.780;2023-01-01T08:44:42;119.82;;;38.58;;
44145;SDS011;29809;52.432;4.780;2023-01-01T08:47:17;99.00;;;32.10;;
44145;SDS011;29809;52.432;4.780;2023-01-01T08:49:43;72.80;;;25.58;;
44145;SDS011;29809;52.432;4.780;2023-01-01T08:52:08;60.15;;;23.35;;
44145;SDS011;29809;52.432;4.780;2023-01-01T08:54:34;51.15;;;20.55;;
44145;SDS011;29809;52.432;4.780;2023-01-01T08:56:59;47.92;;;19.02;;
44145;SDS011;29809;52.432;4.780;2023-01-01T08:59:24;47.67;;;16.92;;
44145;SDS011;29809;52.432;4.780;2023-01-01T09:01:49;41.35;;;16.10;;
44145;SDS011;29809;52.432;4.780;2023-01-01T09:04:15;37.83;;;14.10;;
44145;SDS011;29809;52.432;4.780;2023-01-01T09:06:41;31.90;;;13.70;;
44145;SDS011;29809;52.432;4.780;2023-01-01T09:09:06;30.27;;;12.40;;
44145;SDS011;29809;52.432;4.780;2023-01-01T09:11:31;32.15;;;10.75;;
44145;SDS011;29809;52.432;4.780;2023-01-01T09:13:56;27.58;;;11.43;;
44145;SDS011;29809;52.432;4.780;2023-01-01T09:16:22;22.92;;;9.05;;
44145;SDS011;29809;52.432;4.780;2023-01-01T09:18:47;20.90;;;8.38;;
44145;SDS011;29809;52.432;4.780;2023-01-01T09:21:13;20.08;;;8.05;;
44145;SDS011;29809;52.432;4.780;2023-01-01T09:23:38;20.08;;;7.75;;
44145;SDS011;29809;52.432;4.780;2023-01-01T09:26:04;17.65;;;6.47;;
44145;SDS011;29809;52.432;4.780;2023-01-01T09:28:30;16.50;;;6.80;;
44145;SDS011;29809;52.432;4.780;2023-01-01T09:30:55;14.60;;;5.65;;
44145;SDS011;29809;52.432;4.780;2023-01-01T09:33:20;15.07;;;6.15;;
44145;SDS011;29809;52.432;4.780;2023-01-01T09:35:46;21.27;;;6.30;;
44145;SDS011;29809;52.432;4.780;2023-01-01T09:38:11;15.40;;;5.10;;
44145;SDS011;29809;52.432;4.780;2023-01-01T09:40:47;15.23;;;5.53;;
44145;SDS011;29809;52.432;4.780;2023-01-01T09:46:02;13.85;;;5.07;;
44145;SDS011;29809;52.432;4.780;2023-01-01T09:48:30;13.15;;;4.45;;
44145;SDS011;29809;52.432;4.780;2023-01-01T09:50:56;11.07;;;3.65;;
44145;SDS011;29809;52.432;4.780;2023-01-01T09:55:55;14.80;;;4.00;;
44145;SDS011;29809;52.432;4.780;2023-01-01T09:58:23;11.18;;;3.92;;
44145;SDS011;29809;52.432;4.780;2023-01-01T10:00:51;10.40;;;3.78;;
44145;SDS011;29809;52.432;4.780;2023-01-01T10:03:19;14.02;;;3.30;;
44145;SDS011;29809;52.432;4.780;2023-01-01T10:11:19;11.23;;;3.53;;
44145;SDS011;29809;52.432;4.780;2023-01-01T10:13:47;12.35;;;3.40;;
44145;SDS011;29809;52.432;4.780;2023-01-01T10:18:39;10.50;;;3.28;;
44145;SDS011;29809;52.432;4.780;2023-01-01T10:21:09;8.10;;;2.85;;
44145;SDS011;29809;52.432;4.780;2023-01-01T10:23:41;10.48;;;2.58;;
44145;SDS011;29809;52.432;4.780;2023-01-01T10:26:08;12.27;;;3.75;;
44145;SDS011;29809;52.432;4.780;2023-01-01T10:28:49;12.60;;;3.00;;
44145;SDS011;29809;52.432;4.780;2023-01-01T10:31:16;9.05;;;3.10;;
44145;SDS011;29809;52.432;4.780;2023-01-01T10:33:42;10.15;;;3.15;;
44145;SDS011;29809;52.432;4.780;2023-01-01T10:36:09;9.13;;;2.75;;
44145;SDS011;29809;52.432;4.780;2023-01-01T10:38:37;10.40;;;3.47;;
44145;SDS011;29809;52.432;4.780;2023-01-01T10:41:05;9.90;;;2.78;;
44145;SDS011;29809;52.432;4.780;2023-01-01T10:43:31;11.10;;;3.10;;
44145;SDS011;29809;52.432;4.780;2023-01-01T10:45:58;8.55;;;2.47;;
44145;SDS011;29809;52.432;4.780;2023-01-01T10:48:25;10.90;;;2.60;;
44145;SDS011;29809;52.432;4.780;2023-01-01T10:50:54;6.68;;;2.58;;
44145;SDS011;29809;52.432;4.780;2023-01-01T10:53:24;7.85;;;2.67;;
44145;SDS011;29809;52.432;4.780;2023-01-01T10:55:51;9.70;;;2.70;;
44145;SDS011;29809;52.432;4.780;2023-01-01T10:58:40;8.30;;;2.95;;
44145;SDS011;29809;52.432;4.780;2023-01-01T11:01:07;8.20;;;2.55;;
44145;SDS011;29809;52.432;4.780;2023-01-01T11:03:33;9.07;;;2.65;;
44145;SDS011;29809;52.432;4.780;2023-01-01T11:08:24;7.45;;;2.33;;
44145;SDS011;29809;52.432;4.780;2023-01-01T11:10:50;8.38;;;2.63;;
44145;SDS011;29809;52.432;4.780;2023-01-01T11:13:18;9.50;;;2.88;;
44145;SDS011;29809;52.432;4.780;2023-01-01T11:15:44;9.38;;;2.72;;
44145;SDS011;29809;52.432;4.780;2023-01-01T11:18:13;8.15;;;2.25;;
44145;SDS011;29809;52.432;4.780;2023-01-01T11:20:42;8.07;;;2.58;;
44145;SDS011;29809;52.432;4.780;2023-01-01T11:23:17;8.38;;;2.70;;
44145;SDS011;29809;52.432;4.780;2023-01-01T11:25:55;6.88;;;2.58;;
44145;SDS011;29809;52.432;4.780;2023-01-01T11:28:20;12.10;;;2.92;;
44145;SDS011;29809;52.432;4.780;2023-01-01T11:31:03;11.52;;;3.47;;
44145;SDS011;29809;52.432;4.780;2023-01-01T11:33:30;5.90;;;2.75;;
44145;SDS011;29809;52.432;4.780;2023-01-01T11:35:56;7.70;;;2.28;;
44145;SDS011;29809;52.432;4.780;2023-01-01T11:38:22;11.07;;;2.78;;
44145;SDS011;29809;52.432;4.780;2023-01-01T11:40:50;9.38;;;2.72;;
44145;SDS011;29809;52.432;4.780;2023-01-01T11:43:23;9.80;;;2.45;;
44145;SDS011;29809;52.432;4.780;2023-01-01T11:45:49;10.75;;;2.58;;
44145;SDS011;29809;52.432;4.780;2023-01-01T11:48:19;10.98;;;3.25;;
44145;SDS011;29809;52.432;4.780;2023-01-01T11:50:55;11.52;;;3.35;;
44145;SDS011;29809;52.432;4.780;2023-01-01T11:56:03;7.15;;;2.28;;
44145;SDS011;29809;52.432;4.780;2023-01-01T12:01:15;10.23;;;3.22;;
44145;SDS011;29809;52.432;4.780;2023-01-01T12:03:43;9.80;;;2.42;;
44145;SDS011;29809;52.432;4.780;2023-01-01T12:11:43;6.70;;;2.35;;
44145;SDS011;29809;52.432;4.780;2023-01-01T12:19:27;8.05;;;2.47;;
44145;SDS011;29809;52.432;4.780;2023-01-01T12:21:54;10.32;;;2.75;;
44145;SDS011;29809;52.432;4.780;2023-01-01T12:24:22;9.95;;;2.83;;
44145;SDS011;29809;52.432;4.780;2023-01-01T12:38:09;8.07;;;2.63;;
44145;SDS011;29809;52.432;4.780;2023-01-01T12:40:38;7.10;;;2.20;;
44145;SDS011;29809;52.432;4.780;2023-01-01T12:45:49;9.70;;;2.58;;
44145;SDS011;29809;52.432;4.780;2023-01-01T12:48:23;9.00;;;3.10;;
44145;SDS011;29809;52.432;4.780;2023-01-01T12:50:52;10.73;;;2.63;;
44145;SDS011;29809;52.432;4.780;2023-01-01T12:53:31;8.75;;;2.45;;
44145;SDS011;29809;52.432;4.780;2023-01-01T12:58:31;8.38;;;2.25;;
44145;SDS011;29809;52.432;4.780;2023-01-01T13:01:03;11.27;;;3.10;;
44145;SDS011;29809;52.432;4.780;2023-01-01T13:03:31;9.55;;;3.15;;
44145;SDS011;29809;52.432;4.780;2023-01-01T13:05:58;9.93;;;2.65;;
44145;SDS011;29809;52.432;4.780;2023-01-01T13:08:25;10.00;;;3.03;;
44145;SDS011;29809;52.432;4.780;2023-01-01T13:10:51;6.30;;;2.20;;
44145;SDS011;29809;52.432;4.780;2023-01-01T13:13:17;9.80;;;3.25;;
44145;SDS011;29809;52.432;4.780;2023-01-01T13:15:44;10.73;;;2.80;;
44145;SDS011;29809;52.432;4.780;2023-01-01T13:20:38;10.88;;;2.75;;
44145;SDS011;29809;52.432;4.780;2023-01-01T13:23:04;9.90;;;2.55;;
44145;SDS011;29809;52.432;4.780;2023-01-01T13:25:30;9.77;;;2.70;;
44145;SDS011;29809;52.432;4.780;2023-01-01T13:35:42;10.13;;;3.03;;
44145;SDS011;29809;52.432;4.780;2023-01-01T13:38:42;8.80;;;3.00;;
44145;SDS011;29809;52.432;4.780;2023-01-01T13:40:52;11.40;;;3.03;;
44145;SDS011;29809;52.432;4.780;2023-01-01T13:43:18;11.52;;;2.85;;
44145;SDS011;29809;52.432;4.780;2023-01-01T13:45:44;12.45;;;4.53;;
44145;SDS011;29809;52.432;4.780;2023-01-01T13:51:41;14.95;;;3.92;;
44145;SDS011;29809;52.432;4.780;2023-01-01T13:56:10;8.40;;;3.17;;
44145;SDS011;29809;52.432;4.780;2023-01-01T13:58:53;13.25;;;3.38;;
44145;SDS011;29809;52.432;4.780;2023-01-01T14:01:30;10.13;;;2.90;;
44145;SDS011;29809;52.432;4.780;2023-01-01T14:03:59;9.02;;;2.85;;
44145;SDS011;29809;52.432;4.780;2023-01-01T14:06:33;11.35;;;3.72;;
44145;SDS011;29809;52.432;4.780;2023-01-01T14:09:01;10.73;;;2.72;;
44145;SDS011;29809;52.432;4.780;2023-01-01T14:11:27;9.40;;;2.80;;
44145;SDS011;29809;52.432;4.780;2023-01-01T14:13:53;9.35;;;3.22;;
44145;SDS011;29809;52.432;4.780;2023-01-01T14:16:18;8.43;;;2.40;;
44145;SDS011;29809;52.432;4.780;2023-01-01T14:18:45;9.80;;;3.38;;
44145;SDS011;29809;52.432;4.780;2023-01-01T14:21:14;8.70;;;2.30;;
44145;SDS011;29809;52.432;4.780;2023-01-01T14:23:41;10.68;;;3.33;;
44145;SDS011;29809;52.432;4.780;2023-01-01T14:26:12;8.38;;;2.97;;
44145;SDS011;29809;52.432;4.780;2023-01-01T14:28:38;8.95;;;2.85;;
44145;SDS011;29809;52.432;4.780;2023-01-01T14:31:04;9.80;;;2.80;;
44145;SDS011;29809;52.432;4.780;2023-01-01T14:33:31;8.95;;;2.85;;
44145;SDS011;29809;52.432;4.780;2023-01-01T14:36:00;7.00;;;2.60;;
44145;SDS011;29809;52.432;4.780;2023-01-01T14:38:41;7.45;;;2.60;;
44145;SDS011;29809;52.432;4.780;2023-01-01T14:41:11;4.97;;;2.25;;
44145;SDS011;29809;52.432;4.780;2023-01-01T14:43:38;6.25;;;2.40;;
44145;SDS011;29809;52.432;4.780;2023-01-01T14:46:05;10.63;;;3.17;;
44145;SDS011;29809;52.432;4.780;2023-01-01T14:48:31;7.70;;;2.63;;
44145;SDS011;29809;52.432;4.780;2023-01-01T14:50:56;7.82;;;2.92;;
44145;SDS011;29809;52.432;4.780;2023-01-01T14:53:24;7.15;;;2.35;;
44145;SDS011;29809;52.432;4.780;2023-01-01T14:55:53;8.05;;;2.80;;
44145;SDS011;29809;52.432;4.780;2023-01-01T14:58:18;7.50;;;2.80;;
44145;SDS011;29809;52.432;4.780;2023-01-01T15:00:44;10.43;;;2.45;;
44145;SDS011;29809;52.432;4.780;2023-01-01T15:03:20;7.50;;;2.80;;
44145;SDS011;29809;52.432;4.780;2023-01-01T15:05:46;7.97;;;2.88;;
44145;SDS011;29809;52.432;4.780;2023-01-01T15:08:21;8.05;;;3.28;;
44145;SDS011;29809;52.432;4.780;2023-01-01T15:10:47;7.82;;;2.50;;
44145;SDS011;29809;52.432;4.780;2023-01-01T15:13:17;9.50;;;2.45;;
44145;SDS011;29809;52.432;4.780;2023-01-01T15:15:43;6.75;;;2.58;;
44145;SDS011;29809;52.432;4.780;2023-01-01T15:20:53;9.55;;;2.55;;
44145;SDS011;29809;52.432;4.780;2023-01-01T15:23:19;5.97;;;2.65;;
44145;SDS011;29809;52.432;4.780;2023-01-01T15:25:44;6.70;;;2.30;;
44145;SDS011;29809;52.432;4.780;2023-01-01T15:28:13;8.55;;;2.08;;
44145;SDS011;29809;52.432;4.780;2023-01-01T15:30:43;5.18;;;2.17;;
44145;SDS011;29809;52.432;4.780;2023-01-01T15:33:09;7.22;;;2.50;;
44145;SDS011;29809;52.432;4.780;2023-01-01T15:35:38;5.13;;;2.08;;
44145;SDS011;29809;52.432;4.780;2023-01-01T15:38:11;5.00;;;2.22;;
44145;SDS011;29809;52.432;4.780;2023-01-01T15:40:38;5.75;;;2.20;;
44145;SDS011;29809;52.432;4.780;2023-01-01T15:43:12;5.50;;;2.20;;
44145;SDS011;29809;52.432;4.780;2023-01-01T15:45:38;5.65;;;2.30;;
44145;SDS011;29809;52.432;4.780;2023-01-01T15:53:01;3.92;;;2.00;;
44145;SDS011;29809;52.432;4.780;2023-01-01T15:55:28;3.30;;;1.90;;
44145;SDS011;29809;52.432;4.780;2023-01-01T15:57:55;6.15;;;2.17;;
44145;SDS011;29809;52.432;4.780;2023-01-01T16:00:22;5.95;;;2.42;;
44145;SDS011;29809;52.432;4.780;2023-01-01T16:02:48;4.43;;;2.10;;
44145;SDS011;29809;52.432;4.780;2023-01-01T16:05:15;2.78;;;1.70;;
44145;SDS011;29809;52.432;4.780;2023-01-01T16:07:42;4.10;;;2.20;;
44145;SDS011;29809;52.432;4.780;2023-01-01T16:10:15;3.97;;;2.00;;
44145;SDS011;29809;52.432;4.780;2023-01-01T16:12:41;5.32;;;2.15;;
44145;SDS011;29809;52.432;4.780;2023-01-01T16:15:06;3.10;;;1.90;;
44145;SDS011;29809;52.432;4.780;2023-01-01T16:17:32;5.57;;;2.10;;
44145;SDS011;29809;52.432;4.780;2023-01-01T16:19:57;5.43;;;2.15;;
44145;SDS011;29809;52.432;4.780;2023-01-01T16:22:23;3.40;;;1.90;;
44145;SDS011;29809;52.432;4.780;2023-01-01T16:24:49;5.78;;;1.90;;
44145;SDS011;29809;52.432;4.780;2023-01-01T16:27:14;4.72;;;1.95;;
44145;SDS011;29809;52.432;4.780;2023-01-01T16:29:39;3.33;;;2.05;;